sensor_id;sensor_type;location;lat;lon;timestamp;P1;durP1;ratioP1;P2;durP2;ratioP2
20639;SDS011;10479;53.524;9.846;2022-08-21T10:57:14;6.72;;;2.30;;
20639;SDS011;10479;53.524;9.846;2022-08-21T10:59:47;4.80;;;1.55;;
20639;SDS011;10479;53.524;9.846;2022-08-21T11:05:02;5.72;;;1.48;;
20639;SDS011;10479;53.524;9.846;2022-08-21T11:07:37;4.35;;;1.65;;
20639;SDS011;10479;53.524;9.846;2022-08-21T11:10:10;5.72;;;1.60;;
20639;SDS011;10479;53.524;9.846;2022-08-21T11:12:44;4.33;;;1.30;;
20639;SDS011;10479;53.524;9.846;2022-08-21T11:18:15;6.15;;;1.70;;
20639;SDS011;10479;53.524;9.846;2022-08-21T11:20:59;6.40;;;1.67;;
20639;SDS011;10479;53.524;9.846;2022-08-21T11:23:34;6.55;;;1.60;;
20639;SDS011;10479;53.524;9.846;2022-08-21T11:26:05;7.20;;;1.58;;
20639;SDS011;10479;53.524;9.846;2022-08-21T11:28:54;4.18;;;1.50;;
20639;SDS011;10479;53.524;9.846;2022-08-21T11:31:30;5.18;;;1.90;;
20639;SDS011;10479;53.524;9.846;2022-08-21T11:36:40;7.88;;;1.85;;
20639;SDS011;10479;53.524;9.846;2022-08-21T11:42:12;5.35;;;1.63;;
20639;SDS011;10479;53.524;9.846;2022-08-21T11:44:46;6.10;;;1.70;;
20639;SDS011;10479;53.524;9.846;2022-08-21T11:52:45;6.55;;;1.58;;
20639;SDS011;10479;53.524;9.846;2022-08-21T11:55:18;5.10;;;1.40;;
20639;SDS011;10479;53.524;9.846;2022-08-21T11:58:30;7.25;;;1.25;;
20639;SDS011;10479;53.524;9.846;2022-08-21T12:00:48;4.65;;;1.40;;
20639;SDS011;10479;53.524;9.846;2022-08-21T12:03:27;3.80;;;1.23;;
20639;SDS011;10479;53.524;9.846;2022-08-21T12:05:58;7.32;;;1.33;;
20639;SDS011;10479;53.524;9.846;2022-08-21T12:08:33;7.10;;;1.50;;
20639;SDS011;10479;53.524;9.846;2022-08-21T12:13:52;6.55;;;1.33;;
20639;SDS011;10479;53.524;9.846;2022-08-21T12:21:33;7.57;;;1.50;;
20639;SDS011;10479;53.524;9.846;2022-08-21T12:27:00;6.72;;;1.38;;
20639;SDS011;10479;53.524;9.846;2022-08-21T12:29:49;6.10;;;1.25;;
20639;SDS011;10479;53.524;9.846;2022-08-21T12:34:49;7.38;;;1.17;;
20639;SDS011;10479;53.524;9.846;2022-08-21T12:37:22;5.57;;;1.10;;
20639;SDS011;10479;53.524;9.846;2022-08-21T12:39:51;2.63;;;0.80;;
20639;SDS011;10479;53.524;9.846;2022-08-21T12:42:23;8.98;;;1.33;;
20639;SDS011;10479;53.524;9.846;2022-08-21T12:45:03;3.70;;;1.13;;
20639;SDS011;10479;53.524;9.846;2022-08-21T12:52:35;4.57;;;1.35;;
20639;SDS011;10479;53.524;9.846;2022-08-21T12:55:06;7.65;;;1.88;;
20639;SDS011;10479;53.524;9.846;2022-08-21T12:57:36;4.15;;;1.20;;
20639;SDS011;10479;53.524;9.846;2022-08-21T13:00:04;6.78;;;1.25;;
20639;SDS011;10479;53.524;9.846;2022-08-21T13:02:37;4.82;;;1.33;;
20639;SDS011;10479;53.524;9.846;2022-08-21T13:05:08;6.28;;;1.20;;
20639;SDS011;10479;53.524;9.846;2022-08-21T13:07:37;4.90;;;1.27;;
20639;SDS011;10479;53.524;9.846;2022-08-21T13:10:05;5.65;;;1.20;;
20639;SDS011;10479;53.524;9.846;2022-08-21T13:12:36;5.15;;;1.30;;
20639;SDS011;10479;53.524;9.846;2022-08-21T13:15:03;11.10;;;1.40;;
20639;SDS011;10479;53.524;9.846;2022-08-21T13:17:31;4.03;;;1.38;;
20639;SDS011;10479;53.524;9.846;2022-08-21T13:20:00;6.47;;;1.20;;
20639;SDS011;10479;53.524;9.846;2022-08-21T13:22:28;7.50;;;1.20;;
20639;SDS011;10479;53.524;9.846;2022-08-21T13:24:55;5.18;;;1.13;;
20639;SDS011;10479;53.524;9.846;2022-08-21T13:27:30;3.90;;;1.13;;
20639;SDS011;10479;53.524;9.846;2022-08-21T13:30:07;4.13;;;1.23;;
20639;SDS011;10479;53.524;9.846;2022-08-21T13:32:33;6.72;;;1.42;;
20639;SDS011;10479;53.524;9.846;2022-08-21T13:35:12;5.15;;;1.10;;
20639;SDS011;10479;53.524;9.846;2022-08-21T13:37:41;10.13;;;1.42;;
20639;SDS011;10479;53.524;9.846;2022-08-21T13:40:10;4.93;;;1.55;;
20639;SDS011;10479;53.524;9.846;2022-08-21T13:42:41;4.13;;;1.35;;
20639;SDS011;10479;53.524;9.846;2022-08-21T13:45:13;5.13;;;1.20;;
20639;SDS011;10479;53.524;9.846;2022-08-21T13:47:44;5.05;;;1.00;;
20639;SDS011;10479;53.524;9.846;2022-08-21T13:50:11;4.45;;;1.13;;
20639;SDS011;10479;53.524;9.846;2022-08-21T13:52:53;5.80;;;1.30;;
20639;SDS011;10479;53.524;9.846;2022-08-21T13:55:21;5.78;;;1.10;;
20639;SDS011;10479;53.524;9.846;2022-08-21T13:57:46;12.50;;;1.45;;
20639;SDS011;10479;53.524;9.846;2022-08-21T14:00:16;4.93;;;1.10;;
20639;SDS011;10479;53.524;9.846;2022-08-21T14:02:50;4.20;;;1.10;;
20639;SDS011;10479;53.524;9.846;2022-08-21T14:05:22;3.58;;;1.20;;
20639;SDS011;10479;53.524;9.846;2022-08-21T14:10:20;4.85;;;1.30;;
20639;SDS011;10479;53.524;9.846;2022-08-21T14:12:51;8.15;;;1.77;;
20639;SDS011;10479;53.524;9.846;2022-08-21T14:15:22;6.75;;;1.17;;
20639;SDS011;10479;53.524;9.846;2022-08-21T14:17:50;7.18;;;1.58;;
20639;SDS011;10479;53.524;9.846;2022-08-21T14:20:34;3.45;;;1.10;;
20639;SDS011;10479;53.524;9.846;2022-08-21T14:23:01;3.22;;;1.10;;
20639;SDS011;10479;53.524;9.846;2022-08-21T14:25:38;3.85;;;1.08;;
20639;SDS011;10479;53.524;9.846;2022-08-21T14:28:19;5.35;;;1.23;;
20639;SDS011;10479;53.524;9.846;2022-08-21T14:30:50;5.18;;;1.77;;
20639;SDS011;10479;53.524;9.846;2022-08-21T14:33:25;4.15;;;1.13;;
20639;SDS011;10479;53.524;9.846;2022-08-21T14:35:53;5.50;;;1.15;;
20639;SDS011;10479;53.524;9.846;2022-08-21T14:38:20;4.63;;;1.10;;
20639;SDS011;10479;53.524;9.846;2022-08-21T14:40:49;6.95;;;1.25;;
20639;SDS011;10479;53.524;9.846;2022-08-21T14:43:17;4.32;;;0.90;;
20639;SDS011;10479;53.524;9.846;2022-08-21T14:45:44;4.25;;;1.10;;
20639;SDS011;10479;53.524;9.846;2022-08-21T14:48:10;3.33;;;0.90;;
20639;SDS011;10479;53.524;9.846;2022-08-21T14:50:36;4.18;;;1.00;;
20639;SDS011;10479;53.524;9.846;2022-08-21T14:53:02;3.83;;;1.02;;
20639;SDS011;10479;53.524;9.846;2022-08-21T14:55:29;5.30;;;1.30;;
20639;SDS011;10479;53.524;9.846;2022-08-21T14:57:55;5.20;;;1.30;;
20639;SDS011;10479;53.524;9.846;2022-08-21T15:00:22;6.05;;;1.25;;
20639;SDS011;10479;53.524;9.846;2022-08-21T15:02:50;7.10;;;1.42;;
20639;SDS011;10479;53.524;9.846;2022-08-21T15:05:16;7.97;;;1.48;;
20639;SDS011;10479;53.524;9.846;2022-08-21T15:07:44;9.05;;;1.40;;
20639;SDS011;10479;53.524;9.846;2022-08-21T15:10:10;3.97;;;1.17;;
20639;SDS011;10479;53.524;9.846;2022-08-21T15:12:38;5.00;;;1.20;;
20639;SDS011;10479;53.524;9.846;2022-08-21T15:15:04;3.97;;;1.10;;
20639;SDS011;10479;53.524;9.846;2022-08-21T15:17:31;4.43;;;1.30;;
20639;SDS011;10479;53.524;9.846;2022-08-21T15:19:56;6.03;;;1.85;;
20639;SDS011;10479;53.524;9.846;2022-08-21T15:22:22;6.25;;;1.23;;
20639;SDS011;10479;53.524;9.846;2022-08-21T15:24:47;7.30;;;1.20;;
20639;SDS011;10479;53.524;9.846;2022-08-21T15:27:13;7.07;;;1.20;;
20639;SDS011;10479;53.524;9.846;2022-08-21T15:32:50;5.68;;;1.17;;
20639;SDS011;10479;53.524;9.846;2022-08-21T15:35:09;4.63;;;1.23;;
20639;SDS011;10479;53.524;9.846;2022-08-21T15:37:40;5.20;;;1.20;;
20639;SDS011;10479;53.524;9.846;2022-08-21T15:40:43;3.78;;;1.10;;
20639;SDS011;10479;53.524;9.846;2022-08-21T15:43:36;7.28;;;1.40;;
20639;SDS011;10479;53.524;9.846;2022-08-21T15:47:01;4.53;;;1.05;;
20639;SDS011;10479;53.524;9.846;2022-08-21T15:53:17;6.55;;;1.15;;
20639;SDS011;10479;53.524;9.846;2022-08-21T15:56:46;5.70;;;1.20;;
20639;SDS011;10479;53.524;9.846;2022-08-21T15:59:56;4.45;;;1.17;;
20639;SDS011;10479;53.524;9.846;2022-08-21T16:03:06;5.28;;;1.30;;
20639;SDS011;10479;53.524;9.846;2022-08-21T16:05:54;4.82;;;1.00;;
20639;SDS011;10479;53.524;9.846;2022-08-21T16:08:34;6.00;;;0.98;;
20639;SDS011;10479;53.524;9.846;2022-08-21T16:11:06;5.25;;;1.20;;
20639;SDS011;10479;53.524;9.846;2022-08-21T16:14:00;7.82;;;1.38;;
20639;SDS011;10479;53.524;9.846;2022-08-21T16:16:46;4.88;;;1.20;;
20639;SDS011;10479;53.524;9.846;2022-08-21T16:19:34;8.57;;;1.08;;
20639;SDS011;10479;53.524;9.846;2022-08-21T16:22:25;3.53;;;0.95;;
20639;SDS011;10479;53.524;9.846;2022-08-21T16:24:51;6.70;;;1.30;;
20639;SDS011;10479;53.524;9.846;2022-08-21T16:27:17;4.55;;;0.90;;
20639;SDS011;10479;53.524;9.846;2022-08-21T16:29:43;5.25;;;0.90;;
20639;SDS011;10479;53.524;9.846;2022-08-21T16:32:09;5.47;;;1.20;;
20639;SDS011;10479;53.524;9.846;2022-08-21T16:34:35;7.05;;;1.58;;
20639;SDS011;10479;53.524;9.846;2022-08-21T16:37:03;5.38;;;1.33;;
20639;SDS011;10479;53.524;9.846;2022-08-21T16:39:28;6.90;;;1.10;;
20639;SDS011;10479;53.524;9.846;2022-08-21T16:41:54;4.18;;;1.20;;
20639;SDS011;10479;53.524;9.846;2022-08-21T16:44:20;5.00;;;1.30;;
20639;SDS011;10479;53.524;9.846;2022-08-21T16:46:45;3.92;;;1.30;;
20639;SDS011;10479;53.524;9.846;2022-08-21T16:49:12;4.43;;;1.40;;
20639;SDS011;10479;53.524;9.846;2022-08-21T16:51:38;7.35;;;1.13;;
20639;SDS011;10479;53.524;9.846;2022-08-21T16:54:04;4.95;;;1.10;;
20639;SDS011;10479;53.524;9.846;2022-08-21T16:56:30;5.18;;;1.27;;
20639;SDS011;10479;53.524;9.846;2022-08-21T16:58:56;8.00;;;1.13;;
20639;SDS011;10479;53.524;9.846;2022-08-21T17:01:25;6.70;;;1.27;;
20639;SDS011;10479;53.524;9.846;2022-08-21T17:03:52;4.28;;;1.25;;
20639;SDS011;10479;53.524;9.846;2022-08-21T17:06:28;4.35;;;1.40;;
20639;SDS011;10479;53.524;9.846;2022-08-21T17:08:55;4.72;;;0.82;;
20639;SDS011;10479;53.524;9.846;2022-08-21T17:13:55;4.68;;;1.15;;
20639;SDS011;10479;53.524;9.846;2022-08-21T17:16:46;3.65;;;1.30;;
20639;SDS011;10479;53.524;9.846;2022-08-21T17:19:26;5.80;;;1.30;;
20639;SDS011;10479;53.524;9.846;2022-08-21T17:29:02;5.03;;;1.35;;
20639;SDS011;10479;53.524;9.846;2022-08-21T17:35:32;4.82;;;1.27;;
20639;SDS011;10479;53.524;9.846;2022-08-21T17:38:57;6.25;;;1.40;;
20639;SDS011;10479;53.524;9.846;2022-08-21T17:42:13;5.80;;;1.70;;
20639;SDS011;10479;53.524;9.846;2022-08-21T17:45:28;9.38;;;1.80;;
20639;SDS011;10479;53.524;9.846;2022-08-21T18:13:43;8.55;;;1.88;;
20639;SDS011;10479;53.524;9.846;2022-08-21T18:16:48;11.95;;;2.60;;
20639;SDS011;10479;53.524;9.846;2022-08-21T18:19:44;10.07;;;2.10;;
20639;SDS011;10479;53.524;9.846;2022-08-21T18:22:34;11.02;;;2.15;;
20639;SDS011;10479;53.524;9.846;2022-08-21T18:25:02;11.70;;;2.45;;
20639;SDS011;10479;53.524;9.846;2022-08-21T18:27:43;8.85;;;2.60;;
20639;SDS011;10479;53.524;9.846;2022-08-21T18:30:29;12.88;;;2.75;;
20639;SDS011;10479;53.524;9.846;2022-08-21T18:33:39;7.55;;;2.10;;
20639;SDS011;10479;53.524;9.846;2022-08-21T18:35:48;11.45;;;2.53;;
20639;SDS011;10479;53.524;9.846;2022-08-21T18:38:24;12.32;;;2.80;;
20639;SDS011;10479;53.524;9.846;2022-08-21T18:40:50;10.80;;;2.50;;
20639;SDS011;10479;53.524;9.846;2022-08-21T18:43:29;8.98;;;2.20;;
20639;SDS011;10479;53.524;9.846;2022-08-21T18:45:54;10.73;;;2.13;;
20639;SDS011;10479;53.524;9.846;2022-08-21T18:48:36;10.60;;;2.33;;
20639;SDS011;10479;53.524;9.846;2022-08-21T18:51:05;8.90;;;2.22;;
20639;SDS011;10479;53.524;9.846;2022-08-21T18:53:31;7.38;;;2.05;;
20639;SDS011;10479;53.524;9.846;2022-08-21T18:55:57;11.02;;;2.95;;
20639;SDS011;10479;53.524;9.846;2022-08-21T18:58:27;9.00;;;2.10;;
20639;SDS011;10479;53.524;9.846;2022-08-21T19:01:07;9.63;;;2.50;;
20639;SDS011;10479;53.524;9.846;2022-08-21T19:03:41;9.45;;;2.75;;
20639;SDS011;10479;53.524;9.846;2022-08-21T19:06:09;11.98;;;2.50;;
20639;SDS011;10479;53.524;9.846;2022-08-21T19:08:34;12.25;;;2.80;;
20639;SDS011;10479;53.524;9.846;2022-08-21T19:11:09;6.32;;;2.17;;
20639;SDS011;10479;53.524;9.846;2022-08-21T19:13:38;13.20;;;2.40;;
20639;SDS011;10479;53.524;9.846;2022-08-21T19:16:08;11.38;;;2.72;;
20639;SDS011;10479;53.524;9.846;2022-08-21T19:22:23;11.25;;;3.03;;
20639;SDS011;10479;53.524;9.846;2022-08-21T19:25:08;14.93;;;2.60;;
20639;SDS011;10479;53.524;9.846;2022-08-21T19:28:17;9.40;;;2.28;;
20639;SDS011;10479;53.524;9.846;2022-08-21T19:30:55;10.60;;;2.53;;
20639;SDS011;10479;53.524;9.846;2022-08-21T19:33:30;14.60;;;2.83;;
20639;SDS011;10479;53.524;9.846;2022-08-21T20:03:23;10.85;;;2.28;;
20639;SDS011;10479;53.524;9.846;2022-08-21T20:05:58;12.75;;;2.58;;
20639;SDS011;10479;53.524;9.846;2022-08-21T20:08:24;9.05;;;2.17;;
20639;SDS011;10479;53.524;9.846;2022-08-21T20:10:58;10.70;;;2.45;;
20639;SDS011;10479;53.524;9.846;2022-08-21T20:13:28;10.45;;;2.28;;
20639;SDS011;10479;53.524;9.846;2022-08-21T20:15:58;7.68;;;2.22;;
20639;SDS011;10479;53.524;9.846;2022-08-21T20:18:24;8.60;;;1.90;;
20639;SDS011;10479;53.524;9.846;2022-08-21T20:20:52;10.45;;;2.55;;
20639;SDS011;10479;53.524;9.846;2022-08-21T20:23:37;7.63;;;2.05;;
20639;SDS011;10479;53.524;9.846;2022-08-21T20:26:03;14.02;;;2.50;;
20639;SDS011;10479;53.524;9.846;2022-08-21T20:28:29;10.75;;;2.20;;
20639;SDS011;10479;53.524;9.846;2022-08-21T20:30:55;15.48;;;2.70;;
20639;SDS011;10479;53.524;9.846;2022-08-21T20:33:21;10.65;;;2.28;;
20639;SDS011;10479;53.524;9.846;2022-08-21T20:35:46;8.50;;;2.10;;
20639;SDS011;10479;53.524;9.846;2022-08-21T20:38:14;12.38;;;2.50;;
20639;SDS011;10479;53.524;9.846;2022-08-21T20:40:41;11.52;;;2.35;;
20639;SDS011;10479;53.524;9.846;2022-08-21T20:43:07;11.63;;;2.40;;
20639;SDS011;10479;53.524;9.846;2022-08-21T20:45:36;9.02;;;2.45;;
20639;SDS011;10479;53.524;9.846;2022-08-21T20:48:09;14.45;;;2.15;;
20639;SDS011;10479;53.524;9.846;2022-08-21T20:50:52;9.90;;;2.60;;
20639;SDS011;10479;53.524;9.846;2022-08-21T20:56:16;10.10;;;2.25;;
20639;SDS011;10479;53.524;9.846;2022-08-21T20:58:52;9.05;;;2.35;;
20639;SDS011;10479;53.524;9.846;2022-08-21T21:01:25;9.75;;;2.50;;
20639;SDS011;10479;53.524;9.846;2022-08-21T21:06:56;14.75;;;2.58;;
20639;SDS011;10479;53.524;9.846;2022-08-21T21:09:37;9.90;;;2.25;;
20639;SDS011;10479;53.524;9.846;2022-08-21T21:12:11;12.00;;;2.28;;
20639;SDS011;10479;53.524;9.846;2022-08-21T21:14:44;11.48;;;2.53;;
20639;SDS011;10479;53.524;9.846;2022-08-21T21:17:33;11.93;;;2.75;;
20639;SDS011;10479;53.524;9.846;2022-08-21T21:20:52;8.98;;;2.42;;
20639;SDS011;10479;53.524;9.846;2022-08-21T21:23:21;8.60;;;2.25;;
20639;SDS011;10479;53.524;9.846;2022-08-21T21:25:58;12.68;;;2.67;;
20639;SDS011;10479;53.524;9.846;2022-08-21T21:29:30;10.23;;;2.58;;
20639;SDS011;10479;53.524;9.846;2022-08-21T21:31:27;7.07;;;1.95;;
20639;SDS011;10479;53.524;9.846;2022-08-21T21:33:53;11.77;;;2.78;;
20639;SDS011;10479;53.524;9.846;2022-08-21T21:39:02;10.45;;;2.92;;
20639;SDS011;10479;53.524;9.846;2022-08-21T21:41:44;13.07;;;2.78;;
20639;SDS011;10479;53.524;9.846;2022-08-21T21:55:37;8.27;;;3.13;;
20639;SDS011;10479;53.524;9.846;2022-08-21T22:01:11;11.10;;;2.88;;
20639;SDS011;10479;53.524;9.846;2022-08-21T22:03:46;13.80;;;2.83;;
20639;SDS011;10479;53.524;9.846;2022-08-21T22:06:34;12.10;;;2.95;;
20639;SDS011;10479;53.524;9.846;2022-08-21T22:09:09;10.63;;;2.38;;
20639;SDS011;10479;53.524;9.846;2022-08-21T22:11:41;14.50;;;2.95;;
20639;SDS011;10479;53.524;9.846;2022-08-21T22:14:12;12.18;;;2.60;;
20639;SDS011;10479;53.524;9.846;2022-08-21T22:16:43;12.93;;;2.53;;
20639;SDS011;10479;53.524;9.846;2022-08-21T22:19:15;10.77;;;3.15;;
20639;SDS011;10479;53.524;9.846;2022-08-21T22:21:48;8.40;;;2.65;;
20639;SDS011;10479;53.524;9.846;2022-08-21T22:24:27;17.17;;;3.13;;
20639;SDS011;10479;53.524;9.846;2022-08-21T22:26:58;12.95;;;2.97;;
20639;SDS011;10479;53.524;9.846;2022-08-21T22:29:42;10.90;;;2.38;;
20639;SDS011;10479;53.524;9.846;2022-08-21T22:32:20;13.30;;;2.53;;
20639;SDS011;10479;53.524;9.846;2022-08-21T22:37:33;11.30;;;2.88;;
20639;SDS011;10479;53.524;9.846;2022-08-21T22:40:04;18.50;;;3.20;;
20639;SDS011;10479;53.524;9.846;2022-08-21T22:42:36;16.30;;;3.05;;
20639;SDS011;10479;53.524;9.846;2022-08-21T22:45:04;10.00;;;2.60;;
20639;SDS011;10479;53.524;9.846;2022-08-21T22:47:36;10.95;;;2.42;;
20639;SDS011;10479;53.524;9.846;2022-08-21T22:50:18;14.30;;;3.08;;
20639;SDS011;10479;53.524;9.846;2022-08-21T22:52:49;10.73;;;3.03;;
20639;SDS011;10479;53.524;9.846;2022-08-21T22:55:24;10.10;;;2.90;;
20639;SDS011;10479;53.524;9.846;2022-08-21T22:58:05;11.05;;;3.25;;
20639;SDS011;10479;53.524;9.846;2022-08-21T23:00:42;12.23;;;2.80;;
20639;SDS011;10479;53.524;9.846;2022-08-21T23:06:00;13.25;;;2.80;;
20639;SDS011;10479;53.524;9.846;2022-08-21T23:08:31;10.43;;;2.92;;
20639;SDS011;10479;53.524;9.846;2022-08-21T23:11:00;11.63;;;3.30;;
20639;SDS011;10479;53.524;9.846;2022-08-21T23:13:43;12.13;;;3.13;;
20639;SDS011;10479;53.524;9.846;2022-08-21T23:16:14;10.57;;;2.92;;
20639;SDS011;10479;53.524;9.846;2022-08-21T23:27:52;12.90;;;3.45;;
20639;SDS011;10479;53.524;9.846;2022-08-21T23:33:15;15.95;;;3.22;;
20639;SDS011;10479;53.524;9.846;2022-08-21T23:35:53;10.75;;;2.80;;
20639;SDS011;10479;53.524;9.846;2022-08-21T23:41:58;8.32;;;2.65;;
20639;SDS011;10479;53.524;9.846;2022-08-21T23:44:53;12.27;;;3.35;;
20639;SDS011;10479;53.524;9.846;2022-08-21T23:51:11;10.32;;;2.80;;
